createdAt,value
2023-04-15T00:02:18.976Z,10.42
2023-04-15T00:04:47.705Z,10.44
2023-04-15T00:07:16.354Z,10.48
2023-04-15T00:09:46.758Z,10.51
2023-04-15T00:12:14.414Z,10.53
2023-04-15T00:14:42.214Z,10.52
2023-04-15T00:17:09.860Z,10.50
2023-04-15T00:19:37.727Z,10.49
2023-04-15T00:22:06.247Z,10.48
2023-04-15T00:24:34.363Z,10.49
2023-04-15T00:27:02.218Z,10.50
2023-04-15T00:29:30.746Z,10.54
2023-04-15T00:31:58.471Z,10.57
2023-04-15T00:34:28.078Z,10.59
2023-04-15T00:36:55.842Z,10.58
2023-04-15T00:39:23.767Z,10.57
2023-04-15T00:41:52.031Z,10.54
2023-04-15T00:44:19.735Z,10.51
2023-04-15T00:46:48.828Z,10.50
2023-04-15T00:49:17.697Z,10.50
2023-04-15T00:51:48.304Z,10.51
2023-04-15T00:54:16.531Z,10.52
2023-04-15T00:56:45.799Z,10.53
2023-04-15T00:59:14.775Z,10.54
2023-04-15T01:01:43.147Z,10.54
2023-04-15T01:04:11.685Z,10.54
2023-04-15T01:06:39.639Z,10.52
2023-04-15T01:09:07.262Z,10.48
2023-04-15T01:11:35.440Z,10.49
2023-04-15T01:14:03.594Z,10.48
2023-04-15T01:16:31.718Z,10.47
2023-04-15T01:19:00.453Z,10.46
2023-04-15T01:21:28.402Z,10.47
2023-04-15T01:23:57.290Z,10.48
2023-04-15T01:26:25.301Z,10.48
2023-04-15T01:28:53.116Z,10.49
2023-04-15T01:31:21.024Z,10.50
2023-04-15T01:33:49.118Z,10.51
2023-04-15T01:36:16.960Z,10.52
2023-04-15T01:38:44.746Z,10.52
2023-04-15T01:41:13.946Z,10.52
2023-04-15T01:43:42.046Z,10.51
2023-04-15T01:46:09.836Z,10.49
2023-04-15T01:48:37.749Z,10.47
2023-04-15T01:51:05.914Z,10.46
2023-04-15T01:53:34.355Z,10.44
2023-04-15T01:56:02.521Z,10.45
2023-04-15T01:58:32.662Z,10.46
2023-04-15T02:01:00.878Z,10.48
2023-04-15T02:03:29.818Z,10.49
2023-04-15T02:05:57.915Z,10.51
2023-04-15T02:08:25.584Z,10.51
2023-04-15T02:10:53.415Z,10.50
2023-04-15T02:13:21.242Z,10.49
2023-04-15T02:15:50.068Z,10.47
2023-04-15T02:18:18.014Z,10.46
2023-04-15T02:20:47.016Z,10.47
2023-04-15T02:23:14.957Z,10.48
2023-04-15T02:25:53.765Z,10.50
2023-04-15T02:28:22.377Z,10.50
2023-04-15T02:30:54.562Z,10.52
2023-04-15T02:33:22.307Z,10.50
2023-04-15T02:35:50.011Z,10.50
2023-04-15T02:38:18.167Z,10.48
2023-04-15T02:40:46.324Z,10.46
2023-04-15T02:43:14.175Z,10.44
2023-04-15T02:45:43.587Z,10.43
2023-04-15T02:48:11.698Z,10.41
2023-04-15T02:50:40.887Z,10.41
2023-04-15T02:53:08.608Z,10.41
2023-04-15T02:55:36.549Z,10.41
2023-04-15T02:58:04.779Z,10.42
2023-04-15T03:00:32.788Z,10.41
2023-04-15T03:03:04.246Z,10.40
2023-04-15T03:05:32.709Z,10.40
2023-04-15T03:08:01.496Z,10.38
2023-04-15T03:10:29.358Z,10.35
2023-04-15T03:12:57.171Z,10.33
2023-04-15T03:15:25.085Z,10.31
2023-04-15T03:17:53.329Z,10.30
2023-04-15T03:20:21.450Z,10.29
2023-04-15T03:22:49.272Z,10.29
2023-04-15T03:25:19.173Z,10.28
2023-04-15T03:27:46.997Z,10.28
2023-04-15T03:30:15.383Z,10.28
2023-04-15T03:32:43.199Z,10.27
2023-04-15T03:35:10.925Z,10.23
2023-04-15T03:37:41.361Z,10.21
2023-04-15T03:40:10.016Z,10.17
2023-04-15T03:42:37.936Z,10.15
2023-04-15T03:45:06.704Z,10.15
2023-04-15T03:47:34.451Z,10.16
2023-04-15T03:50:05.092Z,10.15
2023-04-15T03:52:32.993Z,10.14
2023-04-15T03:55:00.915Z,10.11
2023-04-15T03:57:29.223Z,10.07
2023-04-15T03:59:56.884Z,10.03
2023-04-15T04:02:25.181Z,9.98
2023-04-15T04:04:53.300Z,9.95
2023-04-15T04:07:21.505Z,9.92
2023-04-15T04:09:49.224Z,9.90
2023-04-15T04:12:17.076Z,9.87
2023-04-15T04:14:45.007Z,9.86
2023-04-15T04:17:12.860Z,9.84
2023-04-15T04:19:40.710Z,9.79
2023-04-15T04:22:08.526Z,9.73
2023-04-15T04:24:36.613Z,9.67
2023-04-15T04:27:04.422Z,9.61
2023-04-15T04:29:32.070Z,9.58
2023-04-15T04:31:59.927Z,9.52
2023-04-15T04:34:29.891Z,9.48
2023-04-15T04:36:57.596Z,9.46
2023-04-15T04:39:25.592Z,9.43
2023-04-15T04:41:53.457Z,9.40
2023-04-15T04:44:21.228Z,9.37
2023-04-15T04:46:49.080Z,9.35
2023-04-15T04:49:16.741Z,9.31
2023-04-15T04:51:44.442Z,9.28
2023-04-15T04:54:12.160Z,9.25
2023-04-15T04:56:40.026Z,9.19
2023-04-15T04:59:07.828Z,9.14
2023-04-15T05:01:35.933Z,9.13
2023-04-15T05:04:07.928Z,9.12
2023-04-15T05:06:37.074Z,9.12
2023-04-15T05:09:04.875Z,9.13
2023-04-15T05:11:33.218Z,9.13
2023-04-15T05:14:02.480Z,9.11
2023-04-15T05:16:30.315Z,9.11
2023-04-15T05:18:58.135Z,9.08
2023-04-15T05:21:26.321Z,9.03
2023-04-15T05:23:54.052Z,8.98
2023-04-15T05:26:22.268Z,8.92
2023-04-15T05:28:51.544Z,8.91
2023-04-15T05:31:22.857Z,8.91
2023-04-15T05:33:51.104Z,8.91
2023-04-15T05:36:19.667Z,8.92
2023-04-15T05:38:47.651Z,8.91
2023-04-15T05:41:19.107Z,8.90
2023-04-15T05:43:47.626Z,8.87
2023-04-15T05:46:16.469Z,8.84
2023-04-15T05:48:44.558Z,8.79
2023-04-15T05:51:13.469Z,8.76
2023-04-15T05:53:41.825Z,8.74
2023-04-15T05:56:09.782Z,8.75
2023-04-15T05:58:37.741Z,8.77
2023-04-15T06:01:05.740Z,8.80
2023-04-15T06:03:33.748Z,8.85
2023-04-15T06:06:02.558Z,8.89
2023-04-15T06:08:30.375Z,8.90
2023-04-15T06:10:59.034Z,8.89
2023-04-15T06:13:27.335Z,8.91
2023-04-15T06:15:55.504Z,8.90
2023-04-15T06:18:23.210Z,8.90
2023-04-15T06:20:51.021Z,8.89
2023-04-15T06:23:18.745Z,8.87
2023-04-15T06:25:46.861Z,8.86
2023-04-15T06:28:14.532Z,8.83
2023-04-15T06:30:42.256Z,8.80
2023-04-15T06:33:10.866Z,8.78
2023-04-15T06:35:39.334Z,8.80
2023-04-15T06:38:07.282Z,8.82
2023-04-15T06:40:35.028Z,8.87
2023-04-15T06:43:02.912Z,8.91
2023-04-15T06:45:31.797Z,8.93
2023-04-15T06:47:59.711Z,8.93
2023-04-15T06:50:27.809Z,8.94
2023-04-15T06:52:56.310Z,8.94
2023-04-15T06:55:24.036Z,8.92
2023-04-15T06:57:51.836Z,8.91
2023-04-15T07:00:20.362Z,8.91
2023-04-15T07:02:48.346Z,8.89
2023-04-15T07:05:16.148Z,8.87
2023-04-15T07:07:43.935Z,8.85
2023-04-15T07:10:12.264Z,8.82
2023-04-15T07:12:40.074Z,8.83
2023-04-15T07:15:08.102Z,8.84
2023-04-15T07:17:36.263Z,8.87
2023-04-15T07:20:05.128Z,8.92
2023-04-15T07:22:33.200Z,8.99
2023-04-15T07:25:01.199Z,9.04
2023-04-15T07:27:28.917Z,9.08
2023-04-15T07:29:56.718Z,9.11
2023-04-15T07:32:24.481Z,9.13
2023-04-15T07:34:52.223Z,9.14
2023-04-15T07:37:20.124Z,9.13
2023-04-15T07:39:48.077Z,9.13
2023-04-15T07:42:15.909Z,9.11
2023-04-15T07:44:43.660Z,9.11
2023-04-15T07:47:12.002Z,9.11
2023-04-15T07:49:42.009Z,9.11
2023-04-15T07:52:09.953Z,9.11
2023-04-15T07:54:37.923Z,9.13
2023-04-15T07:57:05.589Z,9.17
2023-04-15T07:59:33.720Z,9.23
2023-04-15T08:02:01.485Z,9.29
2023-04-15T08:04:29.691Z,9.35
2023-04-15T08:06:58.185Z,9.41
2023-04-15T08:09:27.177Z,9.46
2023-04-15T08:11:55.090Z,9.51
2023-04-15T08:14:22.875Z,9.53
2023-04-15T08:16:50.872Z,9.56
2023-04-15T08:19:18.683Z,9.57
2023-04-15T08:21:46.901Z,9.60
2023-04-15T08:24:14.636Z,9.61
2023-04-15T08:26:42.455Z,9.64
2023-04-15T08:29:10.359Z,9.67
2023-04-15T08:31:38.161Z,9.72
2023-04-15T08:34:05.899Z,9.78
2023-04-15T08:36:33.720Z,9.89
2023-04-15T08:39:02.330Z,9.99
2023-04-15T08:41:38.141Z,10.11
2023-04-15T08:44:06.142Z,10.26
2023-04-15T08:46:35.020Z,10.38
2023-04-15T08:49:05.443Z,10.49
2023-04-15T08:51:34.118Z,10.60
2023-04-15T08:54:02.889Z,10.72
2023-04-15T08:56:33.163Z,10.83
2023-04-15T08:59:01.679Z,10.95
2023-04-15T09:01:30.006Z,11.05
2023-04-15T09:03:59.296Z,11.12
2023-04-15T09:06:27.414Z,11.20
2023-04-15T09:08:55.453Z,11.27
2023-04-15T09:11:23.427Z,11.36
2023-04-15T09:13:51.714Z,11.45
2023-04-15T09:16:19.818Z,11.54
2023-04-15T09:18:47.579Z,11.57
2023-04-15T09:21:17.618Z,11.63
2023-04-15T09:23:58.238Z,11.75
2023-04-15T09:26:37.106Z,11.87
2023-04-15T09:29:15.521Z,11.93
2023-04-15T09:31:43.783Z,12.00
2023-04-15T09:34:11.804Z,12.03
2023-04-15T09:36:50.846Z,12.01
2023-04-15T09:39:19.015Z,12.04
2023-04-15T09:41:47.012Z,12.14
2023-04-15T09:44:25.452Z,12.26
2023-04-15T09:46:53.206Z,12.39
2023-04-15T09:49:21.244Z,12.48
2023-04-15T09:52:03.979Z,12.53
2023-04-15T09:54:38.242Z,12.57
2023-04-15T09:57:08.038Z,12.59
2023-04-15T09:59:36.719Z,12.61
2023-04-15T10:02:06.621Z,12.65
2023-04-15T10:04:37.794Z,12.69
2023-04-15T10:07:06.432Z,12.74
2023-04-15T10:09:36.839Z,12.80
2023-04-15T10:12:05.462Z,12.81
2023-04-15T10:14:39.012Z,12.81
2023-04-15T10:17:08.478Z,12.87
2023-04-15T10:19:38.433Z,12.91
2023-04-15T10:22:06.875Z,12.95
2023-04-15T10:24:35.140Z,13.00
2023-04-15T10:27:06.624Z,13.08
2023-04-15T10:29:35.364Z,13.15
2023-04-15T10:32:04.304Z,13.17
2023-04-15T10:34:32.651Z,13.20
2023-04-15T10:37:04.420Z,13.24
2023-04-15T10:39:38.989Z,13.26
2023-04-15T10:42:09.379Z,13.27
2023-04-15T10:44:43.282Z,13.27
2023-04-15T10:47:13.947Z,13.27
2023-04-15T10:49:47.033Z,13.31
2023-04-15T10:52:18.020Z,13.35
2023-04-15T10:54:45.987Z,13.38
2023-04-15T10:57:24.121Z,13.42
2023-04-15T10:59:58.765Z,13.41
2023-04-15T11:02:39.326Z,13.37
2023-04-15T11:05:07.934Z,13.27
2023-04-15T11:07:35.923Z,13.20
2023-04-15T11:10:13.695Z,13.13
2023-04-15T11:12:42.151Z,13.06
2023-04-15T11:15:29.921Z,13.01
2023-04-15T11:18:01.434Z,12.97
2023-04-15T11:20:30.008Z,12.95
2023-04-15T11:23:12.146Z,12.96
2023-04-15T11:25:44.400Z,13.00
2023-04-15T11:28:13.217Z,13.05
2023-04-15T11:30:42.622Z,13.09
2023-04-15T11:33:15.138Z,13.12
2023-04-15T11:35:43.074Z,13.14
2023-04-15T11:38:12.767Z,13.16
2023-04-15T11:40:41.241Z,13.19
2023-04-15T11:46:38.940Z,13.34
2023-04-15T11:49:06.742Z,13.42
2023-04-15T11:51:35.230Z,13.50
2023-04-15T11:54:04.072Z,13.58
2023-04-15T11:56:32.107Z,13.58
2023-04-15T11:59:00.237Z,13.55
2023-04-15T12:01:46.925Z,13.52
2023-04-15T12:04:25.211Z,13.49
2023-04-15T12:06:53.544Z,13.50
2023-04-15T12:09:21.769Z,13.50
2023-04-15T12:11:51.261Z,13.47
2023-04-15T12:14:28.530Z,13.44
2023-04-15T12:17:02.095Z,13.42
2023-04-15T12:19:34.826Z,13.41
2023-04-15T12:22:05.385Z,13.39
2023-04-15T12:24:34.312Z,13.35
2023-04-15T12:27:09.847Z,13.33
2023-04-15T12:29:39.179Z,13.33
2023-04-15T12:32:12.550Z,13.34
2023-04-15T12:34:50.991Z,13.33
2023-04-15T12:37:58.587Z,13.33
2023-04-15T12:40:27.329Z,13.33
2023-04-15T12:42:56.641Z,13.30
2023-04-15T12:45:25.015Z,13.29
2023-04-15T12:47:52.740Z,13.28
2023-04-15T12:50:20.559Z,13.27
2023-04-15T12:52:48.479Z,13.25
2023-04-15T12:55:17.388Z,13.23
2023-04-15T12:57:45.104Z,13.23
2023-04-15T13:00:13.367Z,13.23
2023-04-15T13:02:41.302Z,13.22
2023-04-15T13:05:09.376Z,13.21
2023-04-15T13:07:37.451Z,13.19
2023-04-15T13:10:06.015Z,13.17
2023-04-15T13:12:36.544Z,13.15
2023-04-15T13:15:05.764Z,13.13
2023-04-15T13:17:33.568Z,13.10
2023-04-15T13:20:01.501Z,13.07
2023-04-15T13:22:29.266Z,13.08
2023-04-15T13:24:56.943Z,13.08
2023-04-15T13:27:24.712Z,13.09
2023-04-15T13:29:53.047Z,13.10
2023-04-15T13:32:20.932Z,13.09
2023-04-15T13:34:48.833Z,13.08
2023-04-15T13:37:16.666Z,13.11
2023-04-15T13:39:44.702Z,13.15
2023-04-15T13:42:12.340Z,13.19
2023-04-15T13:44:40.261Z,13.25
2023-04-15T13:47:08.279Z,13.31
2023-04-15T13:49:36.078Z,13.34
2023-04-15T13:52:04.021Z,13.38
2023-04-15T13:54:37.142Z,13.42
2023-04-15T13:57:06.678Z,13.48
2023-04-15T13:59:35.172Z,13.52
2023-04-15T14:02:03.265Z,13.57
2023-04-15T14:04:32.120Z,13.60
2023-04-15T14:07:00.064Z,13.61
2023-04-15T14:09:28.542Z,13.64
2023-04-15T14:11:56.936Z,13.69
2023-04-15T14:14:24.805Z,13.74
2023-04-15T14:16:52.700Z,13.78
2023-04-15T14:19:20.602Z,13.82
2023-04-15T14:21:48.683Z,13.85
2023-04-15T14:24:16.721Z,13.89
2023-04-15T14:26:45.243Z,13.92
2023-04-15T14:29:13.152Z,13.93
2023-04-15T14:31:41.032Z,13.93
2023-04-15T14:34:09.803Z,13.93
2023-04-15T14:36:38.188Z,13.90
2023-04-15T14:39:06.342Z,13.83
2023-04-15T14:41:35.465Z,13.74
2023-04-15T14:44:03.555Z,13.68
2023-04-15T14:46:31.416Z,13.63
2023-04-15T14:48:59.505Z,13.59
2023-04-15T14:51:27.481Z,13.57
2023-04-15T14:53:55.238Z,13.56
2023-04-15T14:56:23.068Z,13.55
2023-04-15T14:58:53.259Z,13.53
2023-04-15T15:01:21.679Z,13.53
2023-04-15T15:03:49.961Z,13.51
2023-04-15T15:06:18.361Z,13.51
2023-04-15T15:08:46.426Z,13.51
2023-04-15T15:11:14.246Z,13.51
2023-04-15T15:13:42.339Z,13.51
2023-04-15T15:16:11.854Z,13.51
2023-04-15T15:18:41.050Z,13.51
2023-04-15T15:21:08.944Z,13.51
2023-04-15T15:23:37.173Z,13.52
2023-04-15T15:26:05.456Z,13.50
2023-04-15T15:28:34.850Z,13.50
2023-04-15T15:31:02.871Z,13.51
2023-04-15T15:33:32.011Z,13.52
2023-04-15T15:36:00.059Z,13.53
2023-04-15T15:38:28.643Z,13.54
2023-04-15T15:40:56.408Z,13.54
2023-04-15T15:43:24.563Z,13.52
2023-04-15T15:45:55.619Z,13.51
2023-04-15T15:48:24.084Z,13.49
2023-04-15T15:50:52.564Z,13.46
2023-04-15T15:53:21.162Z,13.46
2023-04-15T15:55:53.174Z,13.45
2023-04-15T15:58:21.914Z,13.43
2023-04-15T16:00:49.631Z,13.41
2023-04-15T16:03:17.756Z,13.37
2023-04-15T16:05:46.141Z,13.38
2023-04-15T16:08:13.959Z,13.34
2023-04-15T16:10:42.063Z,13.32
2023-04-15T16:13:10.885Z,13.31
2023-04-15T16:15:39.040Z,13.29
2023-04-15T16:18:08.208Z,13.27
2023-04-15T16:20:36.044Z,13.24
2023-04-15T16:23:13.477Z,13.20
2023-04-15T16:25:42.986Z,13.18
2023-04-15T16:28:25.034Z,13.16
2023-04-15T16:30:56.343Z,13.13
2023-04-15T16:33:24.218Z,13.11
2023-04-15T16:35:52.403Z,13.08
2023-04-15T16:38:20.547Z,13.04
2023-04-15T16:40:48.362Z,13.01
2023-04-15T16:43:16.063Z,12.97
2023-04-15T16:45:45.446Z,12.95
2023-04-15T16:48:13.185Z,12.91
2023-04-15T16:50:41.047Z,12.88
2023-04-15T16:53:09.083Z,12.84
2023-04-15T16:55:36.937Z,12.79
2023-04-15T16:58:07.214Z,12.77
2023-04-15T17:00:37.291Z,12.72
2023-04-15T17:03:06.132Z,12.69
2023-04-15T17:05:35.520Z,12.66
2023-04-15T17:08:05.628Z,12.63
2023-04-15T17:10:33.539Z,12.59
2023-04-15T17:13:01.472Z,12.55
2023-04-15T17:15:29.499Z,12.52
2023-04-15T17:17:57.530Z,12.48
2023-04-15T17:20:26.728Z,12.44
2023-04-15T17:22:54.861Z,12.41
2023-04-15T17:25:23.268Z,12.37
2023-04-15T17:27:51.377Z,12.33
2023-04-15T17:30:19.433Z,12.30
2023-04-15T17:32:47.404Z,12.26
2023-04-15T17:35:15.379Z,12.22
2023-04-15T17:37:43.242Z,12.19
2023-04-15T17:40:12.107Z,12.16
2023-04-15T17:42:40.347Z,12.11
2023-04-15T17:45:09.150Z,12.07
2023-04-15T17:47:37.427Z,12.03
2023-04-15T17:50:06.091Z,11.98
2023-04-15T17:52:34.075Z,11.96
2023-04-15T17:55:02.668Z,11.93
2023-04-15T17:57:31.067Z,11.90
2023-04-15T17:59:58.862Z,11.87
2023-04-15T18:02:27.217Z,11.84
2023-04-15T18:04:56.204Z,11.80
2023-04-15T18:07:24.160Z,11.77
2023-04-15T18:09:53.253Z,11.75
2023-04-15T18:12:21.035Z,11.72
2023-04-15T18:14:48.855Z,11.70
2023-04-15T18:17:16.993Z,11.69
2023-04-15T18:19:45.948Z,11.68
2023-04-15T18:22:14.400Z,11.65
2023-04-15T18:24:42.643Z,11.64
2023-04-15T18:27:10.881Z,11.62
2023-04-15T18:29:39.028Z,11.60
2023-04-15T18:32:07.395Z,11.58
2023-04-15T18:34:35.766Z,11.56
2023-04-15T18:37:03.902Z,11.53
2023-04-15T18:39:31.667Z,11.53
2023-04-15T18:41:59.914Z,11.53
2023-04-15T18:44:28.612Z,11.56
2023-04-15T18:46:56.593Z,11.60
2023-04-15T18:49:24.383Z,11.62
2023-04-15T18:51:52.454Z,11.63
2023-04-15T18:54:20.433Z,11.64
2023-04-15T18:56:48.389Z,11.64
2023-04-15T18:59:29.386Z,11.63
2023-04-15T19:02:03.696Z,11.62
2023-04-15T19:04:32.205Z,11.61
2023-04-15T19:06:59.996Z,11.60
2023-04-15T19:09:29.028Z,11.57
2023-04-15T19:11:57.953Z,11.55
2023-04-15T19:14:25.977Z,11.53
2023-04-15T19:16:53.754Z,11.50
2023-04-15T19:19:22.526Z,11.47
2023-04-15T19:21:50.640Z,11.46
2023-04-15T19:24:19.836Z,11.46
2023-04-15T19:26:50.290Z,11.47
2023-04-15T19:29:18.772Z,11.49
2023-04-15T19:31:47.467Z,11.50
2023-04-15T19:34:16.062Z,11.50
2023-04-15T19:36:43.851Z,11.49
2023-04-15T19:39:11.754Z,11.48
2023-04-15T19:41:39.934Z,11.47
2023-04-15T19:44:07.757Z,11.44
2023-04-15T19:46:35.820Z,11.42
2023-04-15T19:49:04.430Z,11.38
2023-04-15T19:51:32.492Z,11.36
2023-04-15T19:54:00.632Z,11.34
2023-04-15T19:56:29.535Z,11.32
2023-04-15T19:58:57.572Z,11.29
2023-04-15T20:01:25.796Z,11.30
2023-04-15T20:03:54.809Z,11.30
2023-04-15T20:06:22.985Z,11.31
2023-04-15T20:08:52.081Z,11.31
2023-04-15T20:11:20.341Z,11.32
2023-04-15T20:13:48.104Z,11.30
2023-04-15T20:16:16.191Z,11.30
2023-04-15T20:18:44.207Z,11.29
2023-04-15T20:21:13.015Z,11.26
2023-04-15T20:23:41.294Z,11.24
2023-04-15T20:26:09.087Z,11.21
2023-04-15T20:28:36.834Z,11.16
2023-04-15T20:31:04.918Z,11.11
2023-04-15T20:33:32.786Z,11.12
2023-04-15T20:36:00.587Z,11.11
2023-04-15T20:38:28.485Z,11.12
2023-04-15T20:40:58.072Z,11.10
2023-04-15T20:43:26.245Z,11.10
2023-04-15T20:45:57.543Z,11.08
2023-04-15T20:48:26.424Z,11.05
2023-04-15T20:50:54.142Z,11.02
2023-04-15T20:53:22.012Z,10.98
2023-04-15T20:55:49.783Z,10.93
2023-04-15T20:58:17.596Z,10.90
2023-04-15T21:00:45.522Z,10.85
2023-04-15T21:03:13.675Z,10.79
2023-04-15T21:05:42.315Z,10.74
2023-04-15T21:08:10.189Z,10.71
2023-04-15T21:10:40.709Z,10.69
2023-04-15T21:13:08.697Z,10.67
2023-04-15T21:15:36.747Z,10.65
2023-04-15T21:18:04.770Z,10.63
2023-04-15T21:20:32.649Z,10.63
2023-04-15T21:23:00.543Z,10.61
2023-04-15T21:25:28.827Z,10.60
2023-04-15T21:27:56.562Z,10.58
2023-04-15T21:30:25.756Z,10.56
2023-04-15T21:32:53.799Z,10.52
2023-04-15T21:35:21.812Z,10.48
2023-04-15T21:37:50.016Z,10.44
2023-04-15T21:40:19.649Z,10.42
2023-04-15T21:42:49.233Z,10.42
2023-04-15T21:45:17.524Z,10.39
2023-04-15T21:48:05.845Z,10.37
2023-04-15T21:50:33.810Z,10.33
2023-04-15T21:53:01.955Z,10.31
2023-04-15T21:55:30.647Z,10.27
2023-04-15T21:57:58.631Z,10.23
2023-04-15T22:00:26.472Z,10.18
2023-04-15T22:02:54.674Z,10.10
2023-04-15T22:05:22.631Z,10.04
2023-04-15T22:07:50.938Z,9.98
2023-04-15T22:10:20.908Z,9.93
2023-04-15T22:12:49.333Z,9.84
2023-04-15T22:15:17.445Z,9.82
2023-04-15T22:17:45.818Z,9.78
2023-04-15T22:20:13.768Z,9.76
2023-04-15T22:22:43.971Z,9.67
2023-04-15T22:25:16.105Z,9.73
2023-04-15T22:27:44.064Z,9.70
2023-04-15T22:30:12.554Z,9.69
2023-04-15T22:32:40.419Z,9.67
2023-04-15T22:35:09.034Z,9.63
2023-04-15T22:37:36.938Z,9.59
2023-04-15T22:40:05.280Z,9.56
2023-04-15T22:42:33.270Z,9.56
2023-04-15T22:45:01.590Z,9.58
2023-04-15T22:47:29.595Z,9.60
2023-04-15T22:49:57.333Z,9.63
2023-04-15T22:52:30.556Z,9.65
2023-04-15T22:54:59.091Z,9.70
2023-04-15T22:57:28.352Z,9.69
2023-04-15T22:59:56.117Z,9.69
2023-04-15T23:02:24.250Z,9.65
2023-04-15T23:04:52.355Z,9.64
2023-04-15T23:07:20.233Z,9.64
2023-04-15T23:09:47.990Z,9.65
2023-04-15T23:12:16.217Z,9.69
2023-04-15T23:14:43.965Z,9.70
2023-04-15T23:17:11.877Z,9.70
2023-04-15T23:19:39.775Z,9.69
2023-04-15T23:22:10.701Z,9.68
2023-04-15T23:24:38.709Z,9.69
2023-04-15T23:27:06.614Z,9.66
2023-04-15T23:29:34.345Z,9.64
2023-04-15T23:32:02.396Z,9.63
2023-04-15T23:34:30.152Z,9.64
2023-04-15T23:36:58.164Z,9.64
2023-04-15T23:39:26.069Z,9.66
2023-04-15T23:41:53.756Z,9.64
2023-04-15T23:44:21.617Z,9.61
2023-04-15T23:46:49.642Z,9.58
2023-04-15T23:49:20.085Z,9.54
2023-04-15T23:51:48.154Z,9.51
2023-04-15T23:54:17.989Z,9.47
2023-04-15T23:56:46.320Z,9.43
2023-04-15T23:59:14.089Z,9.38
